createdAt,value
2019-03-28T00:03:21.304Z,22.16
2019-03-28T00:08:30.453Z,23.24
2019-03-28T00:13:40.091Z,25.51
2019-03-28T00:18:49.633Z,24.69
2019-03-28T00:23:58.683Z,22.10
2019-03-28T00:29:07.801Z,22.83
2019-03-28T00:34:16.860Z,25.31
2019-03-28T00:39:25.973Z,25.46
2019-03-28T00:44:35.013Z,26.77
2019-03-28T00:49:44.134Z,26.16
2019-03-28T00:54:53.191Z,24.29
2019-03-28T01:00:02.370Z,24.26
2019-03-28T01:05:11.558Z,22.82
2019-03-28T01:10:20.686Z,25.97
2019-03-28T01:15:28.448Z,20.95
2019-03-28T01:20:37.621Z,21.61
2019-03-28T01:25:46.678Z,18.16
2019-03-28T01:30:55.890Z,17.95
2019-03-28T01:36:04.972Z,18.64
2019-03-28T01:41:14.161Z,15.42
2019-03-28T01:46:23.248Z,17.14
2019-03-28T01:51:32.370Z,18.93
2019-03-28T01:56:42.207Z,18.28
2019-03-28T02:01:51.325Z,22.08
2019-03-28T02:07:00.386Z,20.78
2019-03-28T02:12:09.569Z,19.93
2019-03-28T02:17:18.639Z,19.89
2019-03-28T02:22:27.777Z,22.94
2019-03-28T02:27:36.832Z,18.26
2019-03-28T02:32:45.967Z,17.53
2019-03-28T02:37:55.019Z,18.29
2019-03-28T02:43:04.162Z,20.40
2019-03-28T02:48:13.233Z,19.43
2019-03-28T02:53:22.390Z,20.31
2019-03-28T02:58:31.462Z,17.25
2019-03-28T03:03:40.638Z,19.96
2019-03-28T03:08:49.682Z,18.35
2019-03-28T03:13:58.814Z,18.95
2019-03-28T03:19:07.818Z,16.61
2019-03-28T03:24:16.949Z,16.89
2019-03-28T03:29:25.998Z,16.13
2019-03-28T03:34:35.124Z,20.95
2019-03-28T03:39:44.563Z,19.54
2019-03-28T03:44:53.887Z,14.69
2019-03-28T03:50:02.979Z,19.54
2019-03-28T03:55:12.086Z,19.70
2019-03-28T04:00:21.170Z,16.96
2019-03-28T04:05:30.315Z,18.25
2019-03-28T04:10:39.314Z,18.38
2019-03-28T04:15:48.981Z,25.13
2019-03-28T04:20:58.002Z,17.04
2019-03-28T04:26:07.136Z,16.13
2019-03-28T04:31:16.184Z,16.37
2019-03-28T04:36:25.385Z,18.69
2019-03-28T04:41:34.434Z,13.55
2019-03-28T04:46:43.583Z,18.74
2019-03-28T04:51:53.385Z,13.20
2019-03-28T04:57:01.292Z,12.94
2019-03-28T05:02:10.307Z,14.77
2019-03-28T05:07:19.501Z,17.32
2019-03-28T05:12:28.583Z,16.57
2019-03-28T05:17:37.699Z,15.84
2019-03-28T05:22:46.767Z,16.50
2019-03-28T05:27:55.997Z,17.05
2019-03-28T05:33:05.079Z,20.58
2019-03-28T05:38:14.212Z,20.95
2019-03-28T05:43:23.261Z,20.33
2019-03-28T05:48:32.369Z,18.32
2019-03-28T05:53:43.879Z,18.07
2019-03-28T05:58:50.858Z,12.81
2019-03-28T06:03:59.885Z,13.11
2019-03-28T06:09:09.061Z,12.67
2019-03-28T06:14:18.132Z,14.39
2019-03-28T06:19:27.310Z,15.29
2019-03-28T06:24:36.401Z,11.41
2019-03-28T06:29:45.610Z,19.12
2019-03-28T06:34:54.705Z,15.33
2019-03-28T06:40:03.843Z,17.10
2019-03-28T06:45:12.853Z,17.49
2019-03-28T06:50:21.978Z,19.62
2019-03-28T06:55:31.050Z,19.00
2019-03-28T07:00:40.177Z,18.22
2019-03-28T07:05:49.350Z,23.36
2019-03-28T07:10:58.523Z,18.13
2019-03-28T07:16:07.578Z,17.72
2019-03-28T07:21:16.964Z,18.12
2019-03-28T07:26:26.312Z,22.46
2019-03-28T07:31:35.643Z,21.23
2019-03-28T07:36:43.276Z,21.15
2019-03-28T07:41:52.447Z,20.65
2019-03-28T07:47:01.498Z,21.34
2019-03-28T07:52:10.645Z,21.57
2019-03-28T07:57:19.736Z,19.16
2019-03-28T08:02:28.875Z,16.64
2019-03-28T08:07:44.755Z,19.84
2019-03-28T08:12:46.730Z,22.13
2019-03-28T08:17:55.869Z,21.09
2019-03-28T08:23:05.349Z,19.20
2019-03-28T08:28:14.452Z,22.18
2019-03-28T08:33:23.582Z,23.72
2019-03-28T08:38:32.897Z,18.48
2019-03-28T08:43:41.349Z,25.06
2019-03-28T08:48:50.410Z,19.59
2019-03-28T08:53:59.519Z,22.58
2019-03-28T08:59:08.557Z,17.22
2019-03-28T09:04:17.670Z,19.39
2019-03-28T09:09:26.756Z,19.62
2019-03-28T09:14:35.919Z,20.70
2019-03-28T09:19:44.962Z,18.23
2019-03-28T09:24:54.581Z,25.99
2019-03-28T09:30:03.648Z,19.70
2019-03-28T09:35:12.768Z,20.88
2019-03-28T09:40:21.917Z,24.55
2019-03-28T09:45:31.214Z,19.56
2019-03-28T09:50:40.282Z,22.56
2019-03-28T09:55:49.354Z,16.76
2019-03-28T10:01:03.013Z,16.99
2019-03-28T10:06:07.006Z,17.56
2019-03-28T10:11:16.062Z,19.25
2019-03-28T10:16:25.230Z,18.67
2019-03-28T10:21:37.293Z,19.60
2019-03-28T10:26:42.893Z,22.52
2019-03-28T10:31:51.933Z,24.54
2019-03-28T10:37:01.064Z,19.50
2019-03-28T10:42:10.174Z,17.27
2019-03-28T10:47:19.305Z,17.62
2019-03-28T10:52:28.396Z,17.55
2019-03-28T10:57:37.483Z,15.95
2019-03-28T11:02:46.795Z,13.86
2019-03-28T11:07:55.866Z,13.93
2019-03-28T11:13:09.186Z,13.26
2019-03-28T11:18:14.732Z,15.03
2019-03-28T11:23:23.790Z,15.83
2019-03-28T11:28:32.930Z,16.44
2019-03-28T11:33:41.993Z,17.35
2019-03-28T11:38:51.163Z,15.20
2019-03-28T11:44:00.341Z,12.09
2019-03-28T11:49:09.486Z,14.76
2019-03-28T11:54:18.569Z,11.75
2019-03-28T11:59:27.682Z,12.30
2019-03-28T12:04:38.755Z,14.68
2019-03-28T12:09:45.369Z,12.63
2019-03-28T12:14:54.447Z,10.30
2019-03-28T12:20:03.680Z,14.51
2019-03-28T12:25:12.734Z,14.85
2019-03-28T12:30:21.942Z,14.66
2019-03-28T12:35:30.990Z,15.46
2019-03-28T12:40:40.051Z,17.75
2019-03-28T12:45:49.070Z,13.16
2019-03-28T12:50:59.313Z,16.42
2019-03-28T12:56:07.469Z,14.16
2019-03-28T13:01:16.598Z,16.57
2019-03-28T13:06:25.769Z,14.23
2019-03-28T13:11:34.898Z,15.18
2019-03-28T13:16:43.950Z,14.79
2019-03-28T13:21:53.755Z,15.37
2019-03-28T13:27:02.830Z,16.38
2019-03-28T13:32:11.960Z,14.16
2019-03-28T13:37:21.129Z,16.76
2019-03-28T13:42:30.409Z,13.60
2019-03-28T13:47:39.479Z,14.48
2019-03-28T13:52:48.590Z,16.27
2019-03-28T13:57:57.610Z,16.15
2019-03-28T14:03:06.822Z,15.59
2019-03-28T14:08:15.870Z,15.85
2019-03-28T14:13:24.999Z,14.03
2019-03-28T14:18:34.074Z,12.69
2019-03-28T14:23:43.276Z,13.67
2019-03-28T14:28:52.342Z,16.94
2019-03-28T14:34:02.624Z,15.75
2019-03-28T14:39:10.078Z,16.71
2019-03-28T14:44:23.068Z,15.28
2019-03-28T14:49:22.100Z,16.08
2019-03-28T14:54:31.224Z,14.63
2019-03-28T14:59:40.282Z,15.51
2019-03-28T15:04:49.627Z,17.77
2019-03-28T15:09:58.711Z,13.96
2019-03-28T15:15:07.830Z,15.38
2019-03-28T15:20:16.892Z,14.45
2019-03-28T15:25:26.011Z,12.50
2019-03-28T15:30:35.110Z,12.99
2019-03-28T15:35:44.234Z,13.84
2019-03-28T15:40:53.309Z,13.70
2019-03-28T15:46:02.457Z,16.37
2019-03-28T15:51:11.830Z,15.43
2019-03-28T15:56:20.198Z,15.66
2019-03-28T16:01:29.251Z,18.95
2019-03-28T16:06:38.374Z,15.64
2019-03-28T16:11:47.541Z,19.56
2019-03-28T16:16:56.753Z,14.74
2019-03-28T16:22:06.125Z,16.69
2019-03-28T16:27:15.538Z,19.85
2019-03-28T16:32:24.652Z,18.17
2019-03-28T16:37:33.761Z,18.06
2019-03-28T16:42:42.813Z,19.26
2019-03-28T16:47:51.998Z,21.99
2019-03-28T16:53:01.063Z,14.67
2019-03-28T16:58:10.173Z,20.63
2019-03-28T17:03:19.234Z,18.63
2019-03-28T17:08:28.381Z,19.23
2019-03-28T17:13:37.386Z,21.81
2019-03-28T17:18:46.587Z,18.49
2019-03-28T17:23:55.674Z,18.46
2019-03-28T17:29:04.878Z,18.17
2019-03-28T17:34:13.977Z,17.71
2019-03-28T17:39:23.641Z,18.36
2019-03-28T17:44:33.860Z,17.28
2019-03-28T17:49:41.327Z,16.35
2019-03-28T17:54:50.396Z,19.24
2019-03-28T18:00:00.501Z,19.01
2019-03-28T18:05:09.123Z,18.12
2019-03-28T18:10:08.273Z,15.16
2019-03-28T18:15:17.449Z,19.55
2019-03-28T18:20:26.569Z,20.43
2019-03-28T18:25:35.662Z,15.64
2019-03-28T18:30:45.830Z,18.08
2019-03-28T18:35:53.598Z,23.92
2019-03-28T18:41:02.766Z,17.03
2019-03-28T18:46:14.586Z,19.21
2019-03-28T18:51:20.473Z,18.52
2019-03-28T18:56:29.528Z,19.63
2019-03-28T19:01:38.730Z,18.12
2019-03-28T19:06:47.797Z,22.87
2019-03-28T19:11:57.302Z,17.78
2019-03-28T19:17:06.371Z,16.80
2019-03-28T19:22:15.077Z,19.24
2019-03-28T19:27:24.160Z,18.88
2019-03-28T19:32:33.270Z,22.17
2019-03-28T19:37:42.323Z,21.33
2019-03-28T19:42:51.619Z,22.72
2019-03-28T19:48:00.962Z,19.08
2019-03-28T19:53:11.826Z,21.74
2019-03-28T19:58:18.651Z,24.79
2019-03-28T20:03:28.242Z,21.00
2019-03-28T20:08:36.470Z,21.66
2019-03-28T20:13:44.074Z,20.76
2019-03-28T20:18:53.159Z,24.71
2019-03-28T20:24:02.654Z,24.87
2019-03-28T20:29:11.758Z,19.66
2019-03-28T20:34:20.858Z,24.05
2019-03-28T20:39:29.909Z,19.69
2019-03-28T20:44:39.036Z,21.65
2019-03-28T20:49:48.087Z,22.32
2019-03-28T20:54:57.262Z,19.07
2019-03-28T21:00:08.524Z,19.65
2019-03-28T21:05:14.975Z,20.56
2019-03-28T21:10:24.039Z,22.04
2019-03-28T21:15:33.171Z,22.41
2019-03-28T21:20:42.199Z,19.88
2019-03-28T21:25:51.350Z,20.37
2019-03-28T21:31:00.417Z,23.81
2019-03-28T21:36:09.542Z,27.47
2019-03-28T21:41:19.909Z,21.39
2019-03-28T21:46:27.269Z,23.21
2019-03-28T21:51:36.369Z,18.53
2019-03-28T21:56:45.522Z,19.00
2019-03-28T22:01:54.575Z,22.41
2019-03-28T22:07:04.438Z,22.24
2019-03-28T22:12:13.485Z,18.60
2019-03-28T22:17:22.608Z,20.70
2019-03-28T22:22:31.647Z,18.13
2019-03-28T22:27:40.814Z,18.83
2019-03-28T22:32:50.063Z,19.93
2019-03-28T22:37:58.490Z,20.16
2019-03-28T22:43:09.588Z,21.02
2019-03-28T22:48:11.200Z,19.59
2019-03-28T22:53:17.321Z,17.14
2019-03-28T22:58:26.517Z,17.35
2019-03-28T23:03:35.627Z,19.73
2019-03-28T23:08:45.199Z,18.45
2019-03-28T23:13:54.257Z,21.52
2019-03-28T23:19:03.498Z,23.44
2019-03-28T23:24:11.270Z,24.76
2019-03-28T23:29:20.659Z,19.21
2019-03-28T23:34:29.708Z,22.89
2019-03-28T23:39:38.824Z,23.04
2019-03-28T23:44:47.845Z,25.12
2019-03-28T23:49:57.009Z,21.25
2019-03-28T23:55:06.615Z,17.26
